Time;durP1;ratioP1;P1;durP2;ratioP2;P2;SDS_P1;SDS_P2;PMS_P1;PMS_P2;Temp;Humidity;BMP_temperature;BMP_pressure;BME280_temperature;BME280_humidity;BME280_pressure;Samples;Min_cycle;Max_cycle;Signal;HPM_P1;HPM_P2
2023/01/08 00:01:57;;;;;;;4.13;2.85;;;9.90;1.00;;;;;;5114945;28;20046;-82
2023/01/08 00:04:22;;;;;;;4.93;3.50;;;9.80;1.00;;;;;;5132139;28;20059;-82
2023/01/08 00:06:48;;;;;;;5.47;3.80;;;9.80;1.00;;;;;;5132464;28;20080;-84
2023/01/08 00:09:14;;;;;;;5.70;4.28;;;9.80;5.80;;;;;;5132360;28;20049;-82
2023/01/08 00:11:40;;;;;;;5.68;3.60;;;9.80;74.20;;;;;;5114976;28;20047;-81
2023/01/08 00:14:05;;;;;;;5.32;3.70;;;9.80;99.90;;;;;;5131999;27;20048;-82
2023/01/08 00:16:31;;;;;;;6.28;3.55;;;9.80;93.10;;;;;;5134884;27;20506;-82
2023/01/08 00:18:57;;;;;;;5.38;3.03;;;9.80;99.90;;;;;;5135694;27;20097;-83
2023/01/08 00:21:23;;;;;;;4.38;3.40;;;9.80;99.90;;;;;;5118677;27;20051;-82
2023/01/08 00:23:48;;;;;;;5.22;3.30;;;9.80;96.40;;;;;;5118909;27;20127;-82
2023/01/08 00:26:14;;;;;;;5.32;3.72;;;9.90;61.90;;;;;;5118753;27;20050;-82
2023/01/08 00:28:41;;;;;;;5.40;3.80;;;9.90;75.30;;;;;;5135473;27;20092;-83
2023/01/08 00:31:09;;;;;;;4.63;3.55;;;9.90;63.20;;;;;;5135818;27;20078;-85
2023/01/08 00:33:36;;;;;;;4.93;3.83;;;9.80;93.50;;;;;;5118443;27;20043;-82
2023/01/08 00:36:10;;;;;;;4.60;3.30;;;9.90;93.10;;;;;;5135654;27;20483;-82
2023/01/08 00:38:36;;;;;;;7.30;3.63;;;9.80;93.10;;;;;;5135175;27;20043;-83
2023/01/08 00:41:02;;;;;;;5.38;3.53;;;9.80;99.90;;;;;;5135325;27;20386;-82
2023/01/08 00:43:28;;;;;;;5.20;3.50;;;9.90;99.90;;;;;;5101492;27;20101;-83
2023/01/08 00:45:54;;;;;;;7.55;3.95;;;9.80;99.90;;;;;;5118326;27;20471;-81
2023/01/08 00:48:23;;;;;;;5.18;3.60;;;9.80;99.90;;;;;;5135437;27;20039;-82
2023/01/08 00:50:50;;;;;;;5.43;3.90;;;9.80;99.90;;;;;;5135137;27;20118;-82
2023/01/08 00:53:17;;;;;;;8.07;4.22;;;9.80;99.90;;;;;;5135317;27;20497;-82
2023/01/08 00:55:43;;;;;;;4.35;3.53;;;9.80;99.90;;;;;;5117913;27;20411;-82
2023/01/08 00:58:10;;;;;;;5.88;3.95;;;9.80;99.90;;;;;;5134740;27;20058;-82
2023/01/08 01:00:36;;;;;;;4.93;3.72;;;9.80;99.90;;;;;;5135056;27;20047;-82
2023/01/08 01:03:02;;;;;;;5.85;3.63;;;9.90;99.90;;;;;;5135259;27;20391;-82
2023/01/08 01:05:27;;;;;;;4.70;3.33;;;9.90;99.90;;;;;;5118015;27;20070;-82
2023/01/08 01:07:53;;;;;;;6.70;4.07;;;9.90;99.90;;;;;;5134805;27;20481;-82
2023/01/08 01:10:19;;;;;;;6.13;3.65;;;10.00;99.90;;;;;;5135051;27;20050;-83
2023/01/08 01:12:44;;;;;;;6.25;4.60;;;9.90;99.90;;;;;;5117583;27;20046;-83
2023/01/08 01:15:13;;;;;;;6.03;4.72;;;10.00;99.90;;;;;;5134996;27;20094;-83
2023/01/08 01:17:41;;;;;;;5.45;3.95;;;9.90;99.90;;;;;;5117232;27;20043;-83
2023/01/08 01:20:08;;;;;;;5.97;3.72;;;9.80;99.90;;;;;;5134815;27;20046;-83
2023/01/08 01:22:35;;;;;;;7.65;4.20;;;9.80;99.90;;;;;;5117665;27;20044;-85
2023/01/08 01:25:01;;;;;;;6.88;3.80;;;9.70;99.90;;;;;;5134734;27;20483;-85
2023/01/08 01:27:26;;;;;;;6.07;4.18;;;9.70;99.90;;;;;;5134012;27;20054;-84
2023/01/08 01:29:53;;;;;;;4.78;4.00;;;9.70;99.90;;;;;;5134555;27;20051;-84
2023/01/08 01:32:19;;;;;;;6.43;4.30;;;9.80;99.90;;;;;;5135280;27;20035;-86
2023/01/08 01:34:44;;;;;;;8.15;4.47;;;9.70;99.90;;;;;;5118395;27;20055;-85
2023/01/08 01:37:13;;;;;;;7.13;4.43;;;9.60;99.90;;;;;;5137389;27;20096;-85
2023/01/08 01:39:42;;;;;;;6.88;4.65;;;9.60;99.90;;;;;;5117193;27;20050;-87
2023/01/08 01:42:38;;;;;;;8.55;4.90;;;9.60;99.90;;;;;;5134815;27;20510;-84
2023/01/08 01:44:57;;;;;;;8.13;4.78;;;9.50;99.90;;;;;;5133817;27;20137;-85
2023/01/08 01:47:36;;;;;;;6.25;4.47;;;9.60;99.90;;;;;;5117239;27;20170;-86
2023/01/08 01:50:08;;;;;;;6.43;4.10;;;9.50;99.90;;;;;;5134160;27;20136;-86
2023/01/08 01:52:40;;;;;;;8.05;4.63;;;9.50;99.90;;;;;;5134366;27;20043;-86
2023/01/08 01:55:09;;;;;;;4.18;2.78;;;9.50;99.90;;;;;;5117193;27;20043;-84
2023/01/08 01:57:36;;;;;;;5.65;3.55;;;9.50;99.90;;;;;;5133511;27;20055;-84
2023/01/08 02:00:06;;;;;;;4.80;3.80;;;9.60;99.90;;;;;;5117029;27;20047;-85
2023/01/08 02:02:32;;;;;;;5.97;3.85;;;9.60;99.90;;;;;;5134139;27;20058;-84
2023/01/08 02:04:59;;;;;;;5.47;3.50;;;9.60;99.90;;;;;;5116695;27;20165;-84
2023/01/08 02:07:43;;;;;;;5.78;3.88;;;9.70;99.90;;;;;;5117196;27;20043;-84
2023/01/08 02:10:22;;;;;;;5.95;3.35;;;9.70;99.90;;;;;;5116680;27;20090;-84
2023/01/08 02:12:55;;;;;;;5.95;3.05;;;9.70;99.90;;;;;;5133756;27;20128;-85
2023/01/08 02:15:40;;;;;;;5.25;2.65;;;9.70;99.90;;;;;;5133834;27;20394;-82
2023/01/08 02:18:25;;;;;;;5.75;2.85;;;9.60;99.90;;;;;;5147118;27;20049;-82
2023/01/08 02:21:08;;;;;;;5.18;2.75;;;9.60;99.90;;;;;;5154314;27;20095;-83
2023/01/08 02:23:45;;;;;;;3.83;2.25;;;9.60;99.90;;;;;;5137640;27;20049;-82
2023/01/08 02:26:23;;;;;;;2.67;1.73;;;9.60;99.90;;;;;;5137170;27;20047;-84
2023/01/08 02:28:58;;;;;;;4.07;2.00;;;9.60;99.90;;;;;;5154012;27;20047;-81
2023/01/08 02:31:26;;;;;;;4.22;1.95;;;9.60;99.90;;;;;;5154125;27;20141;-81
2023/01/08 02:33:52;;;;;;;7.97;2.00;;;9.50;99.90;;;;;;5136637;27;20055;-82
2023/01/08 02:36:34;;;;;;;7.72;1.70;;;9.40;99.90;;;;;;5153948;27;20043;-81
2023/01/08 02:39:21;;;;;;;6.50;1.40;;;9.30;99.90;;;;;;5135971;27;20061;-81
2023/01/08 02:41:50;;;;;;;5.97;1.35;;;9.40;34.20;;;;;;5154011;27;20045;-81
2023/01/08 02:44:22;;;;;;;5.95;2.10;;;9.30;4.70;;;;;;5154057;27;20046;-81
2023/01/08 02:46:50;;;;;;;5.70;1.40;;;9.20;49.10;;;;;;5153888;27;20081;-82
2023/01/08 02:49:18;;;;;;;3.65;1.33;;;9.20;99.50;;;;;;5136381;27;20424;-81
2023/01/08 02:51:52;;;;;;;9.23;1.60;;;9.00;99.90;;;;;;5136310;27;20057;-82
2023/01/08 02:54:26;;;;;;;8.20;1.60;;;9.10;99.90;;;;;;5153604;27;20061;-82
2023/01/08 02:57:05;;;;;;;7.15;1.38;;;9.00;99.90;;;;;;5153175;27;20105;-85
2023/01/08 02:59:34;;;;;;;6.25;1.10;;;9.00;8.30;;;;;;5153359;27;20552;-84
2023/01/08 03:02:01;;;;;;;5.10;1.23;;;9.00;21.60;;;;;;5153527;27;20542;-85
2023/01/08 03:04:33;;;;;;;8.15;1.35;;;8.90;1.00;;;;;;5153759;27;20082;-84
2023/01/08 03:06:58;;;;;;;7.80;1.52;;;8.90;1.00;;;;;;5136370;27;20061;-83
2023/01/08 03:09:24;;;;;;;9.18;1.63;;;8.90;1.00;;;;;;5136353;27;20038;-83
2023/01/08 03:11:54;;;;;;;6.68;1.08;;;8.80;69.90;;;;;;5119163;27;20034;-83
2023/01/08 03:14:27;;;;;;;11.20;1.60;;;8.80;95.90;;;;;;5153642;27;20368;-84
2023/01/08 03:17:31;;;;;;;8.23;1.15;;;8.80;99.90;;;;;;5153008;27;20039;-84
2023/01/08 03:20:17;;;;;;;5.95;1.58;;;8.80;99.90;;;;;;5136118;27;20053;-84
2023/01/08 03:22:46;;;;;;;7.45;1.50;;;8.70;99.90;;;;;;5153701;27;20047;-84
2023/01/08 03:25:14;;;;;;;6.13;1.40;;;8.60;99.90;;;;;;5153191;27;20050;-84
2023/01/08 03:27:48;;;;;;;8.65;1.60;;;8.60;99.90;;;;;;5153322;27;20396;-84
2023/01/08 03:30:16;;;;;;;11.68;1.77;;;8.60;99.90;;;;;;5136232;27;20054;-84
2023/01/08 03:32:43;;;;;;;6.57;1.27;;;8.60;99.90;;;;;;5153365;27;20054;-83
2023/01/08 03:35:14;;;;;;;7.25;1.30;;;8.50;99.90;;;;;;5153014;27;20463;-83
2023/01/08 03:37:44;;;;;;;11.13;1.58;;;8.50;99.90;;;;;;5135347;27;20043;-83
2023/01/08 03:40:10;;;;;;;10.45;1.77;;;8.40;99.90;;;;;;5153131;27;20111;-83
2023/01/08 03:42:36;;;;;;;7.35;1.58;;;8.40;99.90;;;;;;5153331;27;20043;-83
2023/01/08 03:45:02;;;;;;;6.93;1.50;;;8.40;99.90;;;;;;5153055;27;20053;-83
2023/01/08 03:47:30;;;;;;;7.22;1.70;;;8.40;99.90;;;;;;5135711;27;20047;-82
2023/01/08 03:50:00;;;;;;;9.13;1.58;;;8.40;99.90;;;;;;5138024;27;20043;-82
2023/01/08 03:52:29;;;;;;;8.68;1.65;;;8.40;99.90;;;;;;5157453;27;20042;-82
2023/01/08 03:54:55;;;;;;;10.40;1.90;;;8.40;99.90;;;;;;5157065;27;20176;-83
2023/01/08 03:57:21;;;;;;;8.80;1.80;;;8.30;99.90;;;;;;5156632;27;20133;-83
2023/01/08 03:59:47;;;;;;;9.80;2.05;;;8.30;99.90;;;;;;5139819;27;20042;-83
2023/01/08 04:02:13;;;;;;;7.35;2.05;;;8.30;99.90;;;;;;5139667;27;20062;-82
2023/01/08 04:04:39;;;;;;;10.55;2.00;;;8.30;99.90;;;;;;5157078;27;20043;-83
2023/01/08 04:07:05;;;;;;;9.13;2.35;;;8.30;99.90;;;;;;5156611;27;20496;-85
2023/01/08 04:09:31;;;;;;;9.00;2.40;;;8.30;99.90;;;;;;5157222;27;20551;-83
2023/01/08 04:11:57;;;;;;;16.08;2.63;;;8.40;99.90;;;;;;5139363;27;20046;-83
2023/01/08 04:14:22;;;;;;;4.97;2.50;;;8.40;99.90;;;;;;5156836;27;20096;-83
2023/01/08 04:16:48;;;;;;;6.97;2.60;;;8.40;99.90;;;;;;5139235;27;20038;-82
2023/01/08 04:19:14;;;;;;;6.72;2.75;;;8.50;99.90;;;;;;5156725;27;20546;-84
2023/01/08 04:21:40;;;;;;;5.13;2.58;;;8.60;99.90;;;;;;5139421;27;20039;-85
2023/01/08 04:24:06;;;;;;;11.68;3.20;;;8.60;99.90;;;;;;5156639;27;20042;-85
2023/01/08 04:26:32;;;;;;;7.28;3.25;;;8.70;99.90;;;;;;5139458;27;20129;-83
2023/01/08 04:29:00;;;;;;;9.38;3.97;;;8.80;99.90;;;;;;5138863;27;20439;-83
2023/01/08 04:31:26;;;;;;;9.43;3.90;;;8.80;99.90;;;;;;5157038;27;20095;-82
2023/01/08 04:33:52;;;;;;;7.63;3.25;;;8.90;99.90;;;;;;5156502;27;20046;-82
2023/01/08 04:36:17;;;;;;;8.00;3.75;;;8.90;99.90;;;;;;5121688;27;20039;-82
2023/01/08 04:38:43;;;;;;;7.78;3.70;;;9.00;99.90;;;;;;5122212;27;20145;-81
2023/01/08 04:41:09;;;;;;;6.55;3.63;;;9.00;99.90;;;;;;5139077;27;20118;-81
2023/01/08 04:43:34;;;;;;;9.13;3.70;;;9.10;99.90;;;;;;5156437;27;20043;-81
2023/01/08 04:46:02;;;;;;;7.40;3.40;;;9.10;99.90;;;;;;5155746;27;20502;-82
2023/01/08 04:48:28;;;;;;;5.80;3.15;;;9.20;99.90;;;;;;5121984;27;20131;-81
2023/01/08 04:50:59;;;;;;;6.90;2.88;;;9.20;99.90;;;;;;5156184;27;20104;-81
2023/01/08 04:53:25;;;;;;;3.90;2.60;;;9.30;99.90;;;;;;5156102;27;20180;-81
2023/01/08 04:55:51;;;;;;;4.88;2.85;;;9.30;99.90;;;;;;5121679;27;20049;-81
2023/01/08 04:58:17;;;;;;;4.85;2.70;;;9.30;99.90;;;;;;5138092;27;20051;-81
2023/01/08 05:00:42;;;;;;;7.28;3.40;;;9.30;99.90;;;;;;5155209;27;20458;-82
2023/01/08 05:03:08;;;;;;;7.53;2.67;;;9.30;99.90;;;;;;5155892;27;20047;-82
2023/01/08 05:05:34;;;;;;;4.93;2.85;;;9.30;99.90;;;;;;5155837;27;20120;-82
2023/01/08 05:08:00;;;;;;;5.35;2.92;;;9.30;99.90;;;;;;5155912;27;20130;-82
2023/01/08 05:10:26;;;;;;;5.97;3.10;;;9.30;99.90;;;;;;5138297;27;20085;-82
2023/01/08 05:12:51;;;;;;;7.82;3.15;;;9.30;99.90;;;;;;5121387;27;20039;-82
2023/01/08 05:15:17;;;;;;;5.00;3.10;;;9.30;99.90;;;;;;5138202;27;20107;-82
2023/01/08 05:17:43;;;;;;;5.57;2.83;;;9.20;99.90;;;;;;5155325;27;20133;-82
2023/01/08 05:20:09;;;;;;;4.95;2.72;;;9.30;99.90;;;;;;5138140;27;20053;-82
2023/01/08 05:22:34;;;;;;;9.13;2.53;;;9.20;99.90;;;;;;5138338;27;20046;-81
2023/01/08 05:25:00;;;;;;;4.30;2.53;;;9.20;99.90;;;;;;5138285;27;20039;-83
2023/01/08 05:27:27;;;;;;;5.18;2.88;;;9.20;99.90;;;;;;5155188;27;20054;-82
2023/01/08 05:29:53;;;;;;;4.80;2.15;;;9.20;99.90;;;;;;5138038;27;20054;-82
2023/01/08 05:32:19;;;;;;;4.45;1.75;;;9.20;99.90;;;;;;5137853;27;20046;-83
2023/01/08 05:34:45;;;;;;;6.72;2.22;;;9.20;99.90;;;;;;5137694;27;20375;-83
2023/01/08 05:37:11;;;;;;;7.10;2.50;;;9.10;99.90;;;;;;5154751;27;20047;-83
2023/01/08 05:39:37;;;;;;;5.00;2.10;;;9.10;99.90;;;;;;5137746;27;20402;-84
2023/01/08 05:42:03;;;;;;;6.40;2.65;;;9.10;99.90;;;;;;5137958;27;20057;-83
2023/01/08 05:44:29;;;;;;;6.30;2.40;;;9.10;99.90;;;;;;5155237;27;20046;-86
2023/01/08 05:46:56;;;;;;;6.20;2.28;;;9.10;99.90;;;;;;5155204;27;20065;-82
2023/01/08 05:49:22;;;;;;;6.07;2.55;;;9.10;99.90;;;;;;5137544;27;20443;-83
2023/01/08 05:51:48;;;;;;;6.93;2.45;;;9.00;99.90;;;;;;5137796;27;20051;-83
2023/01/08 05:54:14;;;;;;;6.53;2.25;;;9.00;99.90;;;;;;5137391;27;20413;-83
2023/01/08 05:56:42;;;;;;;5.88;2.40;;;9.00;99.90;;;;;;5137368;27;20042;-82
2023/01/08 05:59:12;;;;;;;5.75;2.47;;;9.00;99.90;;;;;;5155022;27;20547;-83
2023/01/08 06:01:37;;;;;;;4.13;2.40;;;8.90;99.90;;;;;;5137452;27;20091;-83
2023/01/08 06:04:03;;;;;;;3.92;2.40;;;8.90;99.90;;;;;;5154619;27;20054;-82
2023/01/08 06:06:29;;;;;;;4.25;2.05;;;8.90;99.90;;;;;;5120046;27;20104;-83
2023/01/08 06:08:54;;;;;;;5.32;2.40;;;8.90;99.90;;;;;;5120339;27;20046;-83
2023/01/08 06:11:20;;;;;;;6.00;2.60;;;8.80;99.90;;;;;;5154556;27;20363;-83
2023/01/08 06:13:46;;;;;;;3.67;2.08;;;9.40;99.90;;;;;;5153518;27;20078;-83
2023/01/08 06:16:12;;;;;;;7.38;2.38;;;8.70;99.90;;;;;;5154199;27;20067;-83
2023/01/08 06:18:38;;;;;;;6.18;2.60;;;8.70;99.90;;;;;;5137232;27;20046;-83
2023/01/08 06:21:04;;;;;;;4.47;2.50;;;8.70;99.90;;;;;;5137325;27;20047;-83
2023/01/08 06:23:31;;;;;;;4.35;2.25;;;8.70;99.90;;;;;;5154086;27;20386;-83
2023/01/08 06:25:59;;;;;;;4.82;2.58;;;8.70;99.90;;;;;;5120005;27;20050;-83
2023/01/08 06:28:25;;;;;;;8.35;2.50;;;8.70;99.90;;;;;;5154044;27;20078;-83
2023/01/08 06:30:50;;;;;;;4.30;3.30;;;8.70;99.90;;;;;;5154270;27;20112;-82
2023/01/08 06:33:18;;;;;;;5.18;2.55;;;8.70;99.90;;;;;;5154054;27;20060;-82
2023/01/08 06:35:44;;;;;;;5.43;3.47;;;8.70;99.90;;;;;;5119718;27;20050;-83
2023/01/08 06:38:10;;;;;;;6.75;3.30;;;8.70;99.90;;;;;;5136868;27;20046;-83
2023/01/08 06:40:35;;;;;;;5.03;2.75;;;8.80;99.90;;;;;;5136651;27;20424;-83
2023/01/08 06:43:03;;;;;;;6.88;3.00;;;8.80;99.90;;;;;;5136414;27;20039;-83
2023/01/08 06:45:29;;;;;;;6.00;3.20;;;8.70;99.90;;;;;;5136238;27;20398;-83
2023/01/08 06:47:58;;;;;;;5.55;3.20;;;8.70;99.90;;;;;;5154036;27;20046;-82
2023/01/08 06:50:24;;;;;;;6.07;3.22;;;8.80;99.90;;;;;;5136080;27;20042;-83
2023/01/08 06:52:54;;;;;;;6.72;3.50;;;8.70;99.90;;;;;;5136511;27;20041;-82
2023/01/08 06:55:21;;;;;;;6.28;2.78;;;8.70;99.90;;;;;;5136351;27;20047;-80
2023/01/08 06:57:47;;;;;;;8.07;3.03;;;8.70;99.90;;;;;;5135773;27;20058;-81
2023/01/08 07:00:13;;;;;;;6.63;2.63;;;8.70;99.90;;;;;;5153911;27;20050;-80
2023/01/08 07:02:39;;;;;;;4.03;2.58;;;8.70;99.90;;;;;;5135516;27;20436;-82
2023/01/08 07:05:05;;;;;;;4.95;2.55;;;8.70;99.90;;;;;;5152128;27;20415;-81
2023/01/08 07:07:31;;;;;;;6.13;2.92;;;8.60;99.90;;;;;;5126261;27;20057;-81
2023/01/08 07:09:57;;;;;;;6.53;2.47;;;8.60;99.90;;;;;;5131473;27;20051;-81
2023/01/08 07:12:23;;;;;;;6.85;2.80;;;8.60;99.90;;;;;;5131127;27;20051;-81
2023/01/08 07:14:49;;;;;;;7.35;2.42;;;8.60;99.90;;;;;;5113978;28;20050;-82
2023/01/08 07:17:15;;;;;;;8.90;2.40;;;8.60;99.90;;;;;;5132016;28;20399;-81
2023/01/08 07:19:42;;;;;;;5.22;2.13;;;8.50;99.90;;;;;;5114701;28;20052;-81
2023/01/08 07:22:08;;;;;;;6.00;2.38;;;8.50;99.90;;;;;;5098510;28;20055;-83
2023/01/08 07:24:34;;;;;;;6.40;2.05;;;8.50;99.90;;;;;;5133389;27;20069;-87
2023/01/08 07:26:59;;;;;;;5.40;2.28;;;8.50;99.90;;;;;;5119166;27;20096;-84
2023/01/08 07:29:26;;;;;;;5.43;1.55;;;8.50;99.90;;;;;;5136620;27;20395;-84
2023/01/08 07:31:52;;;;;;;6.57;2.20;;;8.40;99.90;;;;;;5119102;27;20130;-84
2023/01/08 07:34:18;;;;;;;5.93;1.92;;;8.40;99.90;;;;;;5118940;27;20092;-85
2023/01/08 07:36:43;;;;;;;4.65;1.80;;;8.40;99.90;;;;;;5147027;27;20466;-85
2023/01/08 07:39:09;;;;;;;5.03;1.70;;;8.40;99.90;;;;;;5129436;27;20050;-84
2023/01/08 07:41:35;;;;;;;6.50;1.73;;;8.30;99.90;;;;;;5138945;27;20042;-84
2023/01/08 07:44:03;;;;;;;4.82;1.63;;;8.30;99.90;;;;;;5138935;27;20483;-84
2023/01/08 07:46:28;;;;;;;8.05;1.63;;;8.20;99.90;;;;;;5138778;27;20059;-85
2023/01/08 07:48:55;;;;;;;4.60;1.73;;;8.20;99.90;;;;;;5122319;27;20047;-84
2023/01/08 07:51:21;;;;;;;5.38;1.92;;;8.20;99.90;;;;;;5138676;27;20053;-84
2023/01/08 07:53:47;;;;;;;5.78;1.38;;;8.20;99.90;;;;;;5138575;27;20050;-85
2023/01/08 07:56:13;;;;;;;8.90;1.60;;;8.30;99.90;;;;;;5155744;27;20142;-84
2023/01/08 07:58:38;;;;;;;6.03;1.52;;;8.30;99.90;;;;;;5138253;27;20046;-84
2023/01/08 08:01:08;;;;;;;4.55;1.73;;;8.30;99.90;;;;;;5121799;27;20133;-83
2023/01/08 08:03:34;;;;;;;2.85;1.30;;;8.40;99.90;;;;;;5139383;27;20046;-82
2023/01/08 08:06:00;;;;;;;4.68;1.60;;;8.30;99.90;;;;;;5139313;27;20534;-84
2023/01/08 08:08:26;;;;;;;5.20;1.60;;;8.40;99.90;;;;;;4761236;27;9999734;-83
2023/01/08 08:10:52;;;;;;;4.97;1.67;;;8.30;99.90;;;;;;5123320;27;20139;-82
2023/01/08 08:13:17;;;;;;;4.68;1.63;;;8.20;99.90;;;;;;5139089;27;20050;-80
2023/01/08 08:15:43;;;;;;;4.05;2.15;;;8.20;99.90;;;;;;5121486;27;20065;-87
2023/01/08 08:18:09;;;;;;;7.30;2.92;;;8.30;99.90;;;;;;5136141;27;20095;-86
2023/01/08 08:20:35;;;;;;;8.27;2.45;;;8.20;99.90;;;;;;5113277;27;20099;-87
2023/01/08 08:23:07;;;;;;;7.82;2.58;;;8.10;99.90;;;;;;5131981;27;20085;-87
2023/01/08 08:25:32;;;;;;;7.60;2.58;;;8.10;99.90;;;;;;5123352;27;20106;-87
2023/01/08 08:27:59;;;;;;;5.90;2.47;;;8.10;99.90;;;;;;5122678;27;20042;-88
2023/01/08 08:30:28;;;;;;;9.02;2.97;;;8.10;99.90;;;;;;5156757;27;20039;-87
2023/01/08 08:32:56;;;;;;;5.18;2.25;;;8.00;99.90;;;;;;5156493;27;20058;-87
2023/01/08 08:35:22;;;;;;;8.05;2.90;;;8.00;99.90;;;;;;5138760;27;20198;-87
2023/01/08 08:37:48;;;;;;;7.28;2.70;;;8.00;99.90;;;;;;5156135;27;20546;-87
2023/01/08 08:40:15;;;;;;;8.80;2.90;;;8.00;99.90;;;;;;5122001;27;20053;-87
2023/01/08 08:42:41;;;;;;;6.40;3.08;;;8.00;99.90;;;;;;5105011;27;20058;-87
2023/01/08 08:45:07;;;;;;;8.05;2.97;;;8.10;99.90;;;;;;5139500;27;20043;-87
2023/01/08 08:47:33;;;;;;;6.15;2.63;;;8.10;99.90;;;;;;5139415;27;20089;-87
2023/01/08 08:49:59;;;;;;;6.82;3.22;;;8.10;99.90;;;;;;5139384;27;20079;-86
2023/01/08 08:52:30;;;;;;;7.70;3.38;;;8.10;99.90;;;;;;5139126;27;20458;-86
2023/01/08 08:54:56;;;;;;;9.80;3.00;;;8.20;99.90;;;;;;5139096;27;20414;-87
2023/01/08 08:57:23;;;;;;;9.43;3.00;;;8.20;99.90;;;;;;5138566;27;20046;-87
2023/01/08 08:59:49;;;;;;;7.30;3.05;;;8.30;99.90;;;;;;5138906;27;20051;-86
2023/01/08 09:02:21;;;;;;;10.15;3.00;;;8.30;99.90;;;;;;5139052;27;20041;-87
2023/01/08 09:04:46;;;;;;;9.18;3.40;;;8.40;99.90;;;;;;5138984;27;20045;-86
2023/01/08 09:07:12;;;;;;;5.88;1.90;;;8.40;99.90;;;;;;5156272;27;20133;-87
2023/01/08 09:09:38;;;;;;;3.85;2.28;;;8.40;99.90;;;;;;5138816;27;20046;-88
2023/01/08 09:12:04;;;;;;;5.80;2.40;;;8.40;99.90;;;;;;5138916;27;20474;-88
2023/01/08 09:14:30;;;;;;;6.35;2.63;;;8.50;99.90;;;;;;5138984;27;20095;-87
2023/01/08 09:16:56;;;;;;;4.63;2.05;;;8.50;99.90;;;;;;5138488;27;20424;-87
2023/01/08 09:19:21;;;;;;;8.23;2.35;;;8.50;99.90;;;;;;5156102;27;20068;-87
2023/01/08 09:21:49;;;;;;;4.70;1.75;;;8.60;99.90;;;;;;5138646;27;20043;-88
2023/01/08 09:24:15;;;;;;;6.28;2.10;;;8.60;99.90;;;;;;5155864;27;20052;-87
2023/01/08 09:26:40;;;;;;;6.18;2.03;;;8.60;99.90;;;;;;5138277;27;20038;-88
2023/01/08 09:29:06;;;;;;;3.67;2.10;;;8.70;99.90;;;;;;5138610;27;20071;-87
2023/01/08 09:31:33;;;;;;;3.92;1.42;;;8.70;99.90;;;;;;5138624;27;20130;-87
2023/01/08 09:33:59;;;;;;;8.55;2.25;;;8.70;99.90;;;;;;5138124;27;20046;-87
2023/01/08 09:36:24;;;;;;;5.55;2.10;;;8.70;99.90;;;;;;5121180;27;20050;-87
2023/01/08 09:38:50;;;;;;;4.90;1.88;;;8.80;99.90;;;;;;5155576;27;20455;-87
2023/01/08 09:41:25;;;;;;;8.23;2.53;;;8.80;99.90;;;;;;5138138;27;20046;-87
2023/01/08 09:43:54;;;;;;;4.85;1.50;;;8.80;99.90;;;;;;5155490;27;20087;-87
2023/01/08 09:46:23;;;;;;;6.00;1.88;;;8.90;99.90;;;;;;5155457;27;20501;-87
2023/01/08 09:48:51;;;;;;;5.13;1.65;;;8.90;99.90;;;;;;5155144;27;20104;-88
2023/01/08 09:51:19;;;;;;;6.07;1.92;;;9.00;99.90;;;;;;5121234;27;20047;-87
2023/01/08 09:53:52;;;;;;;4.45;1.17;;;9.00;99.90;;;;;;5137986;27;20053;-87
2023/01/08 09:56:18;;;;;;;5.15;1.60;;;9.00;99.90;;;;;;5155393;27;20140;-87
2023/01/08 09:58:49;;;;;;;6.05;1.58;;;9.10;99.90;;;;;;5120344;27;20138;-87
2023/01/08 10:01:35;;;;;;;1.95;1.23;;;9.10;99.90;;;;;;5137806;27;20458;-87
2023/01/08 10:04:36;;;;;;;5.75;1.45;;;9.10;99.90;;;;;;5155008;27;20416;-88
2023/01/08 10:07:17;;;;;;;7.55;1.75;;;9.20;99.90;;;;;;5055358;28;20044;-87
2023/01/08 10:09:42;;;;;;;8.57;1.60;;;9.20;99.90;;;;;;5125906;27;20558;-87
2023/01/08 10:12:11;;;;;;;5.85;1.58;;;9.30;99.90;;;;;;5133245;27;20042;-87
2023/01/08 10:14:46;;;;;;;4.07;1.40;;;9.30;99.90;;;;;;5100174;27;20051;-88
2023/01/08 10:17:30;;;;;;;4.50;1.27;;;9.30;56.10;;;;;;5100993;27;20039;-87
2023/01/08 10:19:56;;;;;;;5.40;1.58;;;9.30;94.50;;;;;;5134057;27;20043;-87
2023/01/08 10:22:30;;;;;;;4.28;1.30;;;9.40;44.30;;;;;;5111732;27;20057;-87
2023/01/08 10:25:08;;;;;;;6.95;1.50;;;9.40;99.90;;;;;;5116968;27;20043;-87
2023/01/08 10:27:49;;;;;;;4.97;1.50;;;9.40;1.00;;;;;;5144615;27;20091;-87
2023/01/08 10:30:21;;;;;;;6.63;1.87;;;9.40;1.00;;;;;;5151860;27;20047;-86
2023/01/08 10:32:53;;;;;;;3.78;1.33;;;9.40;99.90;;;;;;5135576;27;20299;-90
2023/01/08 10:35:23;;;;;;;6.13;1.67;;;9.40;99.90;;;;;;5154586;27;20072;-87
2023/01/08 10:37:49;;;;;;;6.03;1.60;;;9.40;99.90;;;;;;5136538;27;20543;-87
2023/01/08 10:40:33;;;;;;;5.32;1.50;;;9.50;99.90;;;;;;5153132;27;20127;-87
2023/01/08 10:43:13;;;;;;;4.47;1.50;;;9.60;99.90;;;;;;5152759;27;20035;-87
2023/01/08 10:45:41;;;;;;;6.93;1.50;;;9.60;99.90;;;;;;5153455;27;20061;-88
2023/01/08 10:48:17;;;;;;;5.88;1.48;;;9.60;50.30;;;;;;4780576;27;10000258;-86
2023/01/08 10:50:43;;;;;;;9.32;1.70;;;9.50;99.90;;;;;;5135347;27;20086;-87
2023/01/08 10:53:27;;;;;;;9.98;1.90;;;9.60;99.90;;;;;;5117960;27;20070;-88
2023/01/08 10:56:22;;;;;;;7.57;1.48;;;9.70;1.00;;;;;;5115370;27;20089;-87
2023/01/08 10:58:49;;;;;;;5.50;1.50;;;9.60;45.10;;;;;;5133542;27;20055;-88
2023/01/08 11:01:29;;;;;;;9.82;1.92;;;9.70;1.00;;;;;;5135582;27;20049;-87
2023/01/08 11:04:01;;;;;;;5.78;1.45;;;9.80;1.00;;;;;;5132235;27;20047;-88
2023/01/08 11:06:32;;;;;;;5.50;1.42;;;9.80;58.40;;;;;;5131860;27;20043;-88
2023/01/08 11:09:02;;;;;;;9.60;2.00;;;9.80;99.90;;;;;;5115134;27;20126;-87
2023/01/08 11:11:35;;;;;;;9.52;1.70;;;9.80;99.90;;;;;;5132520;27;20368;-86
2023/01/08 11:14:13;;;;;;;7.75;1.80;;;9.80;99.90;;;;;;5132055;27;20043;-87
2023/01/08 11:16:40;;;;;;;8.02;1.40;;;9.90;99.90;;;;;;5140847;27;20042;-86
2023/01/08 11:19:18;;;;;;;6.28;1.35;;;10.00;99.90;;;;;;5152359;27;20046;-85
2023/01/08 11:22:04;;;;;;;10.88;1.60;;;9.90;99.90;;;;;;5135804;27;20070;-86
2023/01/08 11:24:31;;;;;;;13.35;2.40;;;10.00;1.00;;;;;;5135597;27;20472;-87
2023/01/08 11:27:00;;;;;;;9.13;2.10;;;10.00;1.00;;;;;;5151589;27;20137;-87
2023/01/08 11:29:40;;;;;;;6.45;1.50;;;10.00;1.00;;;;;;5133937;27;20050;-87
2023/01/08 11:32:15;;;;;;;10.95;2.08;;;10.00;1.00;;;;;;5152876;27;20126;-86
2023/01/08 11:34:50;;;;;;;8.50;1.98;;;10.00;1.00;;;;;;5128311;27;20046;-86
2023/01/08 11:37:20;;;;;;;8.45;1.15;;;10.10;1.00;;;;;;5136296;27;20040;-86
2023/01/08 11:39:46;;;;;;;8.65;1.73;;;10.10;99.90;;;;;;5143906;27;20121;-86
2023/01/08 11:42:49;;;;;;;9.18;1.90;;;10.40;99.50;;;;;;5121584;28;20431;-86
2023/01/08 11:45:36;;;;;;;5.88;1.10;;;10.30;15.90;;;;;;5115628;28;20051;-87
2023/01/08 11:48:40;;;;;;;8.32;1.55;;;10.30;1.00;;;;;;5139555;27;20051;-88
2023/01/08 11:51:28;;;;;;;4.95;1.55;;;10.30;99.90;;;;;;5126497;27;20061;-87
2023/01/08 11:54:12;;;;;;;8.90;1.85;;;9.90;58.90;;;;;;5153630;27;20053;-87
2023/01/08 11:57:12;;;;;;;7.18;1.77;;;10.40;99.90;;;;;;5153274;27;20482;-87
2023/01/08 12:00:02;;;;;;;7.28;1.65;;;11.00;1.00;;;;;;5135981;27;20047;-86
2023/01/08 12:02:52;;;;;;;10.95;1.52;;;11.10;99.90;;;;;;5136398;27;20042;-86
2023/01/08 12:05:21;;;;;;;6.68;1.70;;;11.10;99.90;;;;;;5115656;28;20394;-86
2023/01/08 12:07:52;;;;;;;6.13;1.20;;;11.10;99.90;;;;;;5115829;28;20043;-85
2023/01/08 12:10:39;;;;;;;8.70;1.70;;;11.30;1.00;;;;;;5116954;27;20051;-91
2023/01/08 12:13:04;;;;;;;6.80;1.58;;;11.40;1.00;;;;;;5136402;27;20113;-86
2023/01/08 12:15:56;;;;;;;6.53;1.70;;;11.50;1.00;;;;;;5128013;27;20043;-87
2023/01/08 12:18:39;;;;;;;7.80;1.60;;;11.50;99.90;;;;;;5124077;27;20043;-87
2023/01/08 12:21:11;;;;;;;8.80;1.42;;;11.30;99.90;;;;;;5141610;27;20042;-87
2023/01/08 12:24:15;;;;;;;8.85;1.73;;;11.30;1.00;;;;;;5139791;27;20430;-87
2023/01/08 12:27:24;;;;;;;8.93;1.35;;;11.20;99.90;;;;;;5054981;27;20452;-87
2023/01/08 12:30:17;;;;;;;9.93;2.10;;;11.50;99.90;;;;;;5057396;28;20045;-87
2023/01/08 12:32:53;;;;;;;7.43;1.92;;;11.80;35.90;;;;;;5119101;27;20055;-87
2023/01/08 12:35:31;;;;;;;4.78;1.52;;;11.90;99.90;;;;;;5117999;27;20051;-89
2023/01/08 12:38:05;;;;;;;8.30;2.10;;;12.00;1.00;;;;;;4786435;27;10000595;-88
2023/01/08 12:40:40;;;;;;;11.23;1.98;;;12.10;99.90;;;;;;5145067;27;20047;-88
2023/01/08 12:43:30;;;;;;;8.68;1.65;;;12.00;99.90;;;;;;5130979;27;20050;-87
2023/01/08 12:45:59;;;;;;;8.23;1.90;;;12.20;99.90;;;;;;5125829;27;20730;-87
2023/01/08 12:48:28;;;;;;;10.18;1.63;;;12.20;99.90;;;;;;5124619;27;20814;-88
2023/01/08 12:51:05;;;;;;;7.68;2.08;;;11.90;99.90;;;;;;5143307;27;20514;-88
2023/01/08 12:53:49;;;;;;;9.05;1.50;;;11.70;99.90;;;;;;5134292;27;20051;-87
2023/01/08 12:56:35;;;;;;;9.68;1.90;;;11.70;99.90;;;;;;5140226;27;20043;-87
2023/01/08 12:59:19;;;;;;;9.13;1.63;;;11.90;99.90;;;;;;5116992;27;20059;-87
2023/01/08 13:02:05;;;;;;;8.13;1.90;;;11.80;99.90;;;;;;5118518;27;20479;-87
2023/01/08 13:04:47;;;;;;;7.22;1.70;;;11.70;1.00;;;;;;5117120;27;20590;-88
2023/01/08 13:07:29;;;;;;;5.50;1.33;;;11.50;99.90;;;;;;5100505;27;20043;-86
2023/01/08 13:10:04;;;;;;;;;;;11.20;99.90;;;;;;5117703;27;20054;-88
2023/01/08 13:12:42;;;;;;;8.15;1.70;;;10.80;1.00;;;;;;5134789;27;19926;-86